createdAt,value
2023-05-19T00:00:50.042Z,10.83
2023-05-19T00:03:33.831Z,10.81
2023-05-19T00:06:14.676Z,10.78
2023-05-19T00:09:01.140Z,10.74
2023-05-19T00:11:41.859Z,10.70
2023-05-19T00:14:22.548Z,10.64
2023-05-19T00:17:03.449Z,10.60
2023-05-19T00:19:45.152Z,10.55
2023-05-19T00:22:25.944Z,10.48
2023-05-19T00:25:07.433Z,10.45
2023-05-19T00:27:48.153Z,10.41
2023-05-19T00:30:30.195Z,10.39
2023-05-19T00:33:10.985Z,10.35
2023-05-19T00:35:51.584Z,10.30
2023-05-19T00:38:33.393Z,10.26
2023-05-19T00:41:13.695Z,10.24
2023-05-19T00:43:54.272Z,10.22
2023-05-19T00:46:34.551Z,10.15
2023-05-19T00:49:15.219Z,10.07
2023-05-19T00:51:56.165Z,10.04
2023-05-19T00:54:36.780Z,10.03
2023-05-19T00:57:17.568Z,10.00
2023-05-19T00:59:58.255Z,10.01
2023-05-19T01:02:40.087Z,10.00
2023-05-19T01:05:21.547Z,9.97
2023-05-19T01:08:02.396Z,9.95
2023-05-19T01:10:42.554Z,9.93
2023-05-19T01:13:23.585Z,9.94
2023-05-19T01:16:14.265Z,9.95
2023-05-19T01:19:10.931Z,9.97
2023-05-19T01:22:13.113Z,9.95
2023-05-19T01:25:30.729Z,9.95
2023-05-19T01:28:48.030Z,9.94
2023-05-19T01:31:29.093Z,9.90
2023-05-19T01:34:13.084Z,9.90
2023-05-19T01:36:56.013Z,9.88
2023-05-19T01:39:37.396Z,9.86
2023-05-19T01:42:18.594Z,9.84
2023-05-19T01:44:58.969Z,9.81
2023-05-19T01:47:44.370Z,9.80
2023-05-19T01:50:25.154Z,9.77
2023-05-19T01:53:05.880Z,9.73
2023-05-19T01:55:54.464Z,9.70
2023-05-19T01:58:45.426Z,9.67
2023-05-19T02:01:53.352Z,9.70
2023-05-19T02:04:50.656Z,9.68
2023-05-19T02:08:01.188Z,9.65
2023-05-19T02:10:50.299Z,9.63
2023-05-19T02:13:37.861Z,9.61
2023-05-19T02:16:21.914Z,9.58
2023-05-19T02:19:02.111Z,9.58
2023-05-19T02:21:42.190Z,9.58
2023-05-19T02:24:23.078Z,9.58
2023-05-19T02:27:03.916Z,9.59
2023-05-19T02:29:44.252Z,9.57
2023-05-19T02:32:24.881Z,9.56
2023-05-19T02:35:06.180Z,9.57
2023-05-19T02:37:46.714Z,9.57
2023-05-19T02:40:27.855Z,9.55
2023-05-19T02:43:08.633Z,9.51
2023-05-19T02:45:48.796Z,9.44
2023-05-19T02:48:29.128Z,9.41
2023-05-19T02:51:09.626Z,9.40
2023-05-19T02:53:50.496Z,9.38
2023-05-19T02:56:31.000Z,9.39
2023-05-19T02:59:11.306Z,9.40
2023-05-19T03:01:56.588Z,9.43
2023-05-19T03:04:41.794Z,9.42
2023-05-19T03:07:25.312Z,9.37
2023-05-19T03:10:08.365Z,9.32
2023-05-19T03:12:48.917Z,9.32
2023-05-19T03:15:29.320Z,9.30
2023-05-19T03:18:09.621Z,9.29
2023-05-19T03:20:50.335Z,9.28
2023-05-19T03:23:30.952Z,9.29
2023-05-19T03:26:11.197Z,9.30
2023-05-19T03:28:51.814Z,9.28
2023-05-19T03:31:33.029Z,9.24
2023-05-19T03:34:13.514Z,9.20
2023-05-19T03:36:53.854Z,9.17
2023-05-19T03:39:35.090Z,9.13
2023-05-19T03:42:16.349Z,9.08
2023-05-19T03:44:56.821Z,9.10
2023-05-19T03:47:37.203Z,9.10
2023-05-19T03:50:29.107Z,9.12
2023-05-19T03:53:23.000Z,9.12
2023-05-19T03:56:03.572Z,9.15
2023-05-19T03:58:45.033Z,9.19
2023-05-19T04:01:25.074Z,9.19
2023-05-19T04:04:05.414Z,9.20
2023-05-19T04:06:47.005Z,9.20
2023-05-19T04:09:27.832Z,9.24
2023-05-19T04:12:08.838Z,9.28
2023-05-19T04:14:49.440Z,9.30
2023-05-19T04:17:30.097Z,9.35
2023-05-19T04:20:11.440Z,9.37
2023-05-19T04:22:51.838Z,9.42
2023-05-19T04:25:32.246Z,9.45
2023-05-19T04:28:12.963Z,9.47
2023-05-19T04:30:53.347Z,9.49
2023-05-19T04:33:33.981Z,9.50
2023-05-19T04:36:14.465Z,9.50
2023-05-19T04:39:02.819Z,9.50
2023-05-19T04:41:45.159Z,9.53
2023-05-19T04:44:26.368Z,9.56
2023-05-19T04:47:09.101Z,9.59
2023-05-19T04:49:49.370Z,9.64
2023-05-19T04:52:29.722Z,9.68
2023-05-19T04:55:11.412Z,9.69
2023-05-19T04:57:51.944Z,9.68
2023-05-19T05:00:35.690Z,9.64
2023-05-19T05:03:19.216Z,9.64
2023-05-19T05:05:59.937Z,9.66
2023-05-19T05:08:41.445Z,9.68
2023-05-19T05:11:22.682Z,9.70
2023-05-19T05:14:03.499Z,9.75
2023-05-19T05:16:44.724Z,9.80
2023-05-19T05:19:29.448Z,9.85
2023-05-19T05:22:10.650Z,9.88
2023-05-19T05:24:53.834Z,9.92
2023-05-19T05:27:34.122Z,9.93
2023-05-19T05:30:14.906Z,9.96
2023-05-19T05:32:55.809Z,9.98
2023-05-19T05:35:47.504Z,10.02
2023-05-19T05:38:28.295Z,10.12
2023-05-19T05:41:08.470Z,10.22
2023-05-19T05:43:50.447Z,10.30
2023-05-19T05:46:32.633Z,10.39
2023-05-19T05:49:13.551Z,10.53
2023-05-19T05:52:05.577Z,10.71
2023-05-19T05:54:53.782Z,10.86
2023-05-19T05:57:37.418Z,10.96
2023-05-19T06:00:19.426Z,11.10
2023-05-19T06:03:05.888Z,11.22
2023-05-19T06:05:46.463Z,11.33
2023-05-19T06:08:26.465Z,11.46
2023-05-19T06:11:09.556Z,11.61
2023-05-19T06:13:52.170Z,11.71
2023-05-19T06:16:50.382Z,11.79
2023-05-19T06:19:32.446Z,11.92
2023-05-19T06:22:12.995Z,12.04
2023-05-19T06:24:53.138Z,12.13
2023-05-19T06:27:34.726Z,12.15
2023-05-19T06:30:16.287Z,12.16
2023-05-19T06:33:28.227Z,12.18
2023-05-19T06:36:10.639Z,12.24
2023-05-19T06:38:53.003Z,12.30
2023-05-19T06:41:34.596Z,12.40
2023-05-19T06:44:15.011Z,12.56
2023-05-19T06:46:58.224Z,12.73
2023-05-19T06:49:38.194Z,12.85
2023-05-19T06:52:18.444Z,13.03
2023-05-19T06:54:58.846Z,13.25
2023-05-19T06:57:39.253Z,13.41
2023-05-19T07:00:31.571Z,13.49
2023-05-19T07:03:12.347Z,13.53
2023-05-19T07:05:53.388Z,13.62
2023-05-19T07:08:34.527Z,13.82
2023-05-19T07:11:16.662Z,13.99
2023-05-19T07:13:57.164Z,14.06
2023-05-19T07:16:41.478Z,14.10
2023-05-19T07:19:21.829Z,14.24
2023-05-19T07:22:03.144Z,14.43
2023-05-19T07:24:43.271Z,14.63
2023-05-19T07:27:23.467Z,14.81
2023-05-19T07:30:04.443Z,14.95
2023-05-19T07:32:44.635Z,15.13
2023-05-19T07:35:26.402Z,15.27
2023-05-19T07:40:47.655Z,15.66
2023-05-19T07:43:27.947Z,15.94
2023-05-19T07:46:08.479Z,16.09
2023-05-19T07:48:49.130Z,16.25
2023-05-19T07:51:29.586Z,16.57
2023-05-19T07:54:09.762Z,16.68
2023-05-19T07:56:50.058Z,16.73
2023-05-19T07:59:31.400Z,16.75
2023-05-19T08:02:12.008Z,16.76
2023-05-19T08:04:53.190Z,16.84
2023-05-19T08:07:33.957Z,17.06
2023-05-19T08:10:14.151Z,17.16
2023-05-19T08:12:54.651Z,17.25
2023-05-19T08:15:37.621Z,17.37
2023-05-19T08:18:17.790Z,17.37
2023-05-19T08:20:57.969Z,17.42
2023-05-19T08:23:38.740Z,17.54
2023-05-19T08:26:19.193Z,17.70
2023-05-19T08:28:59.481Z,17.89
2023-05-19T08:31:40.035Z,18.13
2023-05-19T08:34:20.806Z,18.33
2023-05-19T08:37:01.531Z,18.53
2023-05-19T08:39:42.485Z,18.68
2023-05-19T08:42:22.993Z,18.91
2023-05-19T08:45:03.639Z,19.05
2023-05-19T08:47:47.275Z,19.10
2023-05-19T08:50:32.292Z,19.08
2023-05-19T08:53:33.709Z,18.90
2023-05-19T08:56:21.833Z,18.95
2023-05-19T08:59:04.146Z,19.06
2023-05-19T09:01:46.329Z,19.12
2023-05-19T09:04:29.920Z,19.22
2023-05-19T09:07:10.937Z,19.32
2023-05-19T09:09:50.908Z,19.33
2023-05-19T09:12:31.564Z,19.33
2023-05-19T09:15:12.940Z,19.32
2023-05-19T09:18:07.656Z,19.51
2023-05-19T09:20:47.904Z,19.67
2023-05-19T09:23:36.113Z,19.48
2023-05-19T09:26:16.615Z,19.32
2023-05-19T09:28:58.452Z,19.41
2023-05-19T09:31:39.080Z,19.58
2023-05-19T09:34:22.321Z,19.67
2023-05-19T09:37:02.447Z,19.92
2023-05-19T09:39:49.268Z,20.11
2023-05-19T09:42:30.177Z,20.37
2023-05-19T09:45:11.356Z,20.57
2023-05-19T09:47:51.590Z,20.62
2023-05-19T09:50:32.755Z,20.65
2023-05-19T09:53:15.063Z,20.68
2023-05-19T09:56:00.169Z,20.72
2023-05-19T09:58:42.977Z,20.81
2023-05-19T10:01:23.693Z,20.80
2023-05-19T10:04:05.969Z,20.70
2023-05-19T10:06:53.468Z,20.48
2023-05-19T10:09:36.338Z,20.29
2023-05-19T10:12:18.237Z,20.31
2023-05-19T10:14:59.721Z,20.32
2023-05-19T10:17:42.479Z,20.34
2023-05-19T10:20:23.191Z,20.25
2023-05-19T10:23:04.087Z,20.24
2023-05-19T10:25:44.870Z,20.35
2023-05-19T10:28:36.844Z,20.48
2023-05-19T10:31:23.125Z,20.56
2023-05-19T10:34:51.163Z,20.68
2023-05-19T10:37:41.758Z,20.79
2023-05-19T10:40:29.565Z,20.84
2023-05-19T10:43:26.022Z,20.94
2023-05-19T10:46:06.655Z,20.97
2023-05-19T10:48:46.965Z,21.12
2023-05-19T10:51:32.207Z,21.47
2023-05-19T10:54:15.959Z,21.61
2023-05-19T10:56:57.970Z,21.66
2023-05-19T10:59:39.289Z,21.64
2023-05-19T11:02:44.531Z,21.78
2023-05-19T11:05:29.930Z,21.78
2023-05-19T11:08:12.163Z,21.54
2023-05-19T11:10:52.738Z,21.57
2023-05-19T11:13:33.870Z,21.57
2023-05-19T11:16:14.853Z,21.52
2023-05-19T11:18:59.135Z,21.66
2023-05-19T11:21:49.239Z,21.71
2023-05-19T11:24:50.168Z,21.81
2023-05-19T11:27:33.314Z,21.90
2023-05-19T11:30:20.015Z,22.06
2023-05-19T11:33:00.660Z,22.31
2023-05-19T11:35:43.784Z,22.51
2023-05-19T11:38:24.665Z,22.54
2023-05-19T11:41:05.144Z,22.34
2023-05-19T11:43:47.923Z,22.27
2023-05-19T11:46:28.520Z,22.19
2023-05-19T11:49:09.461Z,22.21
2023-05-19T11:51:50.412Z,21.95
2023-05-19T11:54:33.048Z,21.53
2023-05-19T11:57:14.135Z,21.11
2023-05-19T11:59:56.749Z,21.09
2023-05-19T12:02:36.953Z,21.00
2023-05-19T12:05:28.015Z,21.03
2023-05-19T12:08:08.805Z,21.08
2023-05-19T12:10:50.914Z,21.21
2023-05-19T12:13:31.143Z,21.32
2023-05-19T12:16:11.602Z,21.28
2023-05-19T12:18:52.157Z,21.07
2023-05-19T12:21:34.357Z,21.06
2023-05-19T12:24:15.100Z,21.34
2023-05-19T12:27:19.682Z,21.63
2023-05-19T12:30:00.671Z,21.64
2023-05-19T12:32:41.441Z,21.85
2023-05-19T12:35:37.627Z,22.10
2023-05-19T12:38:20.943Z,22.35
2023-05-19T12:41:01.680Z,22.58
2023-05-19T12:43:42.332Z,22.63
2023-05-19T12:46:23.042Z,22.51
2023-05-19T12:49:03.593Z,22.32
2023-05-19T12:51:53.119Z,22.30
2023-05-19T12:54:34.447Z,22.44
2023-05-19T12:57:17.031Z,22.56
2023-05-19T13:00:20.771Z,22.73
2023-05-19T13:03:06.897Z,22.98
2023-05-19T13:05:50.442Z,22.98
2023-05-19T13:08:31.166Z,23.03
2023-05-19T13:11:11.392Z,22.72
2023-05-19T13:13:51.495Z,22.68
2023-05-19T13:16:31.782Z,22.73
2023-05-19T13:19:25.394Z,22.82
2023-05-19T13:22:06.287Z,22.89
2023-05-19T13:24:46.355Z,22.82
2023-05-19T13:27:26.669Z,22.85
2023-05-19T13:30:07.953Z,23.00
2023-05-19T13:32:48.412Z,23.09
2023-05-19T13:35:29.093Z,22.91
2023-05-19T13:38:10.450Z,22.64
2023-05-19T13:40:51.218Z,22.53
2023-05-19T13:43:31.712Z,22.46
2023-05-19T13:46:12.184Z,22.53
2023-05-19T13:48:52.762Z,22.70
2023-05-19T13:51:33.339Z,22.79
2023-05-19T13:54:13.623Z,22.88
2023-05-19T13:56:54.214Z,23.05
2023-05-19T13:59:36.073Z,23.01
2023-05-19T14:02:19.155Z,22.94
2023-05-19T14:04:59.564Z,22.88
2023-05-19T14:07:39.765Z,22.90
2023-05-19T14:10:20.795Z,22.76
2023-05-19T14:15:44.573Z,22.50
2023-05-19T14:18:24.856Z,22.28
2023-05-19T14:21:05.656Z,22.36
2023-05-19T14:23:46.461Z,22.55
2023-05-19T14:26:29.164Z,22.48
2023-05-19T14:29:09.703Z,22.53
2023-05-19T14:31:50.104Z,22.55
2023-05-19T14:34:30.965Z,22.49
2023-05-19T14:37:11.279Z,22.52
2023-05-19T14:39:51.410Z,22.49
2023-05-19T14:42:31.570Z,22.58
2023-05-19T14:45:12.158Z,22.60
2023-05-19T14:47:52.854Z,22.43
2023-05-19T14:50:33.648Z,22.35
2023-05-19T14:53:15.392Z,22.56
2023-05-19T14:55:55.996Z,22.48
2023-05-19T14:58:36.302Z,22.44
2023-05-19T15:01:16.696Z,22.51
2023-05-19T15:03:57.128Z,22.65
2023-05-19T15:06:37.536Z,22.84
2023-05-19T15:09:17.738Z,22.78
2023-05-19T15:12:01.291Z,22.83
2023-05-19T15:14:41.423Z,22.81
2023-05-19T15:17:22.180Z,22.88
2023-05-19T15:20:02.774Z,22.81
2023-05-19T15:22:43.119Z,22.93
2023-05-19T15:25:23.600Z,23.01
2023-05-19T15:28:04.028Z,23.11
2023-05-19T15:30:45.203Z,23.09
2023-05-19T15:33:25.701Z,22.88
2023-05-19T15:36:06.255Z,22.90
2023-05-19T15:38:46.783Z,22.87
2023-05-19T15:41:27.197Z,22.82
2023-05-19T15:44:07.762Z,22.69
2023-05-19T15:46:48.167Z,22.54
2023-05-19T15:49:28.804Z,22.45
2023-05-19T15:52:09.340Z,22.46
2023-05-19T15:54:49.770Z,22.58
2023-05-19T15:57:30.043Z,22.73
2023-05-19T16:00:11.967Z,22.90
2023-05-19T16:02:55.632Z,22.73
2023-05-19T16:05:35.870Z,22.49
2023-05-19T16:08:16.182Z,22.40
2023-05-19T16:10:56.679Z,22.18
2023-05-19T16:13:36.975Z,21.97
2023-05-19T16:16:17.220Z,22.05
2023-05-19T16:18:57.556Z,22.14
2023-05-19T16:21:37.760Z,22.25
2023-05-19T16:24:17.904Z,22.28
2023-05-19T16:26:58.375Z,22.32
2023-05-19T16:29:39.324Z,22.37
2023-05-19T16:32:19.598Z,22.55
2023-05-19T16:34:59.944Z,22.62
2023-05-19T16:37:40.407Z,22.66
2023-05-19T16:40:20.987Z,22.70
2023-05-19T16:43:01.302Z,22.71
2023-05-19T16:45:41.308Z,22.64
2023-05-19T16:48:21.632Z,22.58
2023-05-19T16:51:02.032Z,22.52
2023-05-19T16:53:42.221Z,22.46
2023-05-19T16:56:22.388Z,22.25
2023-05-19T16:59:02.748Z,22.25
2023-05-19T17:01:44.050Z,22.33
2023-05-19T17:04:24.592Z,22.37
2023-05-19T17:07:05.013Z,22.30
2023-05-19T17:09:45.422Z,21.98
2023-05-19T17:12:25.783Z,21.82
2023-05-19T17:15:07.185Z,21.64
2023-05-19T17:17:48.396Z,21.56
2023-05-19T17:20:29.062Z,21.61
2023-05-19T17:23:10.331Z,21.59
2023-05-19T17:25:55.542Z,21.58
2023-05-19T17:28:36.297Z,21.57
2023-05-19T17:31:17.153Z,21.62
2023-05-19T17:33:58.121Z,21.68
2023-05-19T17:36:38.494Z,21.66
2023-05-19T17:39:20.394Z,21.60
2023-05-19T17:42:02.082Z,21.62
2023-05-19T17:44:42.596Z,21.60
2023-05-19T17:47:23.126Z,21.64
2023-05-19T17:50:04.396Z,21.67
2023-05-19T17:52:45.166Z,21.79
2023-05-19T17:55:30.150Z,21.97
2023-05-19T17:58:11.477Z,22.19
2023-05-19T18:00:53.149Z,22.35
2023-05-19T18:03:35.323Z,22.46
2023-05-19T18:06:19.776Z,22.53
2023-05-19T18:09:01.249Z,22.65
2023-05-19T18:11:41.871Z,22.81
2023-05-19T18:14:22.688Z,22.97
2023-05-19T18:17:03.193Z,23.18
2023-05-19T18:19:43.562Z,23.31
2023-05-19T18:22:24.206Z,23.44
2023-05-19T18:25:05.591Z,23.57
2023-05-19T18:27:47.376Z,23.58
2023-05-19T18:30:28.234Z,23.53
2023-05-19T18:33:08.678Z,23.40
2023-05-19T18:35:49.107Z,23.16
2023-05-19T18:38:29.407Z,22.73
2023-05-19T18:41:09.827Z,22.20
2023-05-19T18:43:50.663Z,21.70
2023-05-19T18:46:31.380Z,21.32
2023-05-19T18:49:12.065Z,21.00
2023-05-19T18:51:52.782Z,20.68
2023-05-19T18:54:33.637Z,20.39
2023-05-19T18:57:14.680Z,20.15
2023-05-19T18:59:55.039Z,19.93
2023-05-19T19:02:35.328Z,19.70
2023-05-19T19:05:16.002Z,19.51
2023-05-19T19:07:56.457Z,19.38
2023-05-19T19:10:40.311Z,19.24
2023-05-19T19:13:21.125Z,19.08
2023-05-19T19:16:01.797Z,18.97
2023-05-19T19:18:42.846Z,18.86
2023-05-19T19:21:24.193Z,18.78
2023-05-19T19:24:05.628Z,18.71
2023-05-19T19:26:48.158Z,18.62
2023-05-19T19:29:28.508Z,18.51
2023-05-19T19:32:09.480Z,18.34
2023-05-19T19:34:49.917Z,18.21
2023-05-19T19:37:30.382Z,18.08
2023-05-19T19:40:11.524Z,18.02
2023-05-19T19:42:51.751Z,17.95
2023-05-19T19:45:34.832Z,17.88
2023-05-19T19:48:15.472Z,17.79
2023-05-19T19:50:58.822Z,17.71
2023-05-19T19:53:39.212Z,17.61
2023-05-19T19:56:19.569Z,17.49
2023-05-19T19:59:00.257Z,17.38
2023-05-19T20:01:40.881Z,17.28
2023-05-19T20:04:21.457Z,17.17
2023-05-19T20:07:02.141Z,17.10
2023-05-19T20:09:42.565Z,17.08
2023-05-19T20:12:22.956Z,17.05
2023-05-19T20:15:03.261Z,17.03
2023-05-19T20:17:43.747Z,16.98
2023-05-19T20:20:24.092Z,16.95
2023-05-19T20:23:04.556Z,16.90
2023-05-19T20:26:02.381Z,16.83
2023-05-19T20:28:45.671Z,16.74
2023-05-19T20:31:26.147Z,16.64
2023-05-19T20:34:06.405Z,16.59
2023-05-19T20:36:46.993Z,16.53
2023-05-19T20:39:27.684Z,16.51
2023-05-19T20:42:08.394Z,16.49
2023-05-19T20:44:50.178Z,16.44
2023-05-19T20:47:30.928Z,16.38
2023-05-19T20:50:11.652Z,16.36
2023-05-19T20:52:52.232Z,16.32
2023-05-19T20:55:32.749Z,16.28
2023-05-19T20:58:14.502Z,16.23
2023-05-19T21:00:57.554Z,16.19
2023-05-19T21:03:38.280Z,16.15
2023-05-19T21:06:18.459Z,16.11
2023-05-19T21:08:58.655Z,16.07
2023-05-19T21:11:39.245Z,16.03
2023-05-19T21:14:20.850Z,15.98
2023-05-19T21:17:01.073Z,15.93
2023-05-19T21:19:41.530Z,15.92
2023-05-19T21:22:21.563Z,15.88
2023-05-19T21:25:02.032Z,15.82
2023-05-19T21:27:42.552Z,15.74
2023-05-19T21:30:23.561Z,15.70
2023-05-19T21:33:04.492Z,15.67
2023-05-19T21:35:45.852Z,15.64
2023-05-19T21:38:27.668Z,15.62
2023-05-19T21:41:08.199Z,15.58
2023-05-19T21:43:48.485Z,15.58
2023-05-19T21:46:29.497Z,15.53
2023-05-19T21:49:10.141Z,15.51
2023-05-19T21:51:50.726Z,15.50
2023-05-19T21:54:32.431Z,15.46
2023-05-19T21:57:12.816Z,15.43
2023-05-19T21:59:53.269Z,15.44
2023-05-19T22:02:33.699Z,15.43
2023-05-19T22:05:14.286Z,15.41
2023-05-19T22:07:54.716Z,15.43
2023-05-19T22:10:37.291Z,15.43
2023-05-19T22:13:18.911Z,15.38
2023-05-19T22:15:59.647Z,15.34
2023-05-19T22:18:40.087Z,15.30
2023-05-19T22:21:20.603Z,15.29
2023-05-19T22:24:01.138Z,15.26
2023-05-19T22:26:42.880Z,15.23
2023-05-19T22:29:23.323Z,15.25
2023-05-19T22:32:11.726Z,15.24
2023-05-19T22:34:52.258Z,15.23
2023-05-19T22:37:32.477Z,15.20
2023-05-19T22:40:13.168Z,15.18
2023-05-19T22:42:53.725Z,15.16
2023-05-19T22:45:36.425Z,15.14
2023-05-19T22:48:17.328Z,15.11
2023-05-19T22:50:57.771Z,15.09
2023-05-19T22:53:38.104Z,15.07
2023-05-19T22:56:18.285Z,15.04
2023-05-19T22:58:59.451Z,15.03
2023-05-19T23:01:39.910Z,14.98
2023-05-19T23:04:20.592Z,14.93
2023-05-19T23:07:01.253Z,14.92
2023-05-19T23:09:41.829Z,14.86
2023-05-19T23:12:22.017Z,14.81
2023-05-19T23:15:02.851Z,14.76
2023-05-19T23:17:43.214Z,14.72
2023-05-19T23:20:23.437Z,14.68
2023-05-19T23:23:03.625Z,14.64
2023-05-19T23:25:43.827Z,14.62
2023-05-19T23:28:24.244Z,14.60
2023-05-19T23:31:05.017Z,14.57
2023-05-19T23:33:45.534Z,14.54
2023-05-19T23:36:26.159Z,14.48
2023-05-19T23:39:07.653Z,14.45
2023-05-19T23:41:47.770Z,14.42
2023-05-19T23:44:28.047Z,14.37
2023-05-19T23:47:08.451Z,14.35
2023-05-19T23:49:48.730Z,14.31
2023-05-19T23:52:29.056Z,14.31
2023-05-19T23:55:10.011Z,14.30
2023-05-19T23:57:50.543Z,14.22
